Time;durP1;ratioP1;P1;durP2;ratioP2;P2;SDS_P1;SDS_P2;PMS_P1;PMS_P2;Temp;Humidity;BMP_temperature;BMP_pressure;BME280_temperature;BME280_humidity;BME280_pressure;Samples;Min_cycle;Max_cycle;Signal;HPM_P1;HPM_P2
2023/07/20 00:00:44;;;;;;;1.30;1.20;;;;;;;16.10;75.19;101477.84;7400179;19;19958;-70
2023/07/20 00:03:16;;;;;;;1.10;0.80;;;;;;;16.11;75.19;101478.69;7402474;19;20463;-70
2023/07/20 00:05:45;;;;;;;1.77;1.00;;;;;;;16.13;75.77;101482.06;7401925;19;19936;-70
2023/07/20 00:08:14;;;;;;;1.48;0.95;;;;;;;16.15;75.11;101478.09;7402420;19;19965;-71
2023/07/20 00:10:43;;;;;;;1.83;1.25;;;;;;;16.15;74.93;101480.81;7403386;19;19958;-70
2023/07/20 00:13:15;;;;;;;1.08;0.80;;;;;;;16.12;75.23;101474.94;7401160;19;19994;-70
2023/07/20 00:15:44;;;;;;;2.15;0.80;;;;;;;16.08;75.38;101482.66;7402057;19;20327;-70
2023/07/20 00:18:13;;;;;;;1.38;0.93;;;;;;;16.08;76.00;101477.22;7403189;19;19985;-70
2023/07/20 00:20:42;;;;;;;1.83;1.20;;;;;;;16.09;76.16;101475.34;7398006;19;19918;-70
2023/07/20 00:23:10;;;;;;;2.38;0.90;;;;;;;16.09;75.90;101476.16;7401464;19;19915;-70
2023/07/20 00:25:39;;;;;;;1.65;1.23;;;;;;;16.09;76.33;101483.50;7400253;19;19940;-70
2023/07/20 00:28:08;;;;;;;1.98;1.48;;;;;;;16.09;75.64;101472.63;7402311;19;19926;-71
2023/07/20 00:30:41;;;;;;;1.10;0.85;;;;;;;16.08;76.13;101470.94;7402146;19;20408;-71
2023/07/20 00:33:14;;;;;;;1.67;1.00;;;;;;;16.07;76.43;101461.09;7401708;19;20350;-70
2023/07/20 00:35:42;;;;;;;1.30;0.90;;;;;;;16.05;75.57;101469.44;7400424;19;20021;-71
2023/07/20 00:38:11;;;;;;;0.70;0.70;;;;;;;15.98;75.69;101463.13;7402178;19;19926;-70
2023/07/20 00:40:40;;;;;;;1.33;1.00;;;;;;;15.98;75.57;101471.28;7398869;19;19925;-70
2023/07/20 00:43:09;;;;;;;2.08;0.70;;;;;;;15.96;75.67;101467.09;7400209;19;19943;-70
2023/07/20 00:45:41;;;;;;;2.70;0.80;;;;;;;15.96;75.75;101469.78;7398668;19;19918;-70
2023/07/20 00:48:11;;;;;;;1.02;0.80;;;;;;;15.97;75.81;101463.31;7401904;19;19943;-70
2023/07/20 00:50:39;;;;;;;1.35;1.08;;;;;;;15.97;75.47;101466.03;7401609;19;20298;-70
2023/07/20 00:53:08;;;;;;;1.85;1.00;;;;;;;15.99;75.16;101472.97;7401311;19;19922;-70
2023/07/20 00:55:37;;;;;;;0.73;0.73;;;;;;;15.99;75.11;101466.69;7399638;19;20296;-71
2023/07/20 00:58:06;;;;;;;1.92;1.00;;;;;;;15.99;75.18;101475.69;7401715;19;19929;-70
2023/07/20 01:00:35;;;;;;;1.13;0.90;;;;;;;15.99;74.91;101467.53;7397985;19;19983;-70
2023/07/20 01:03:06;;;;;;;1.40;1.00;;;;;;;15.97;75.48;101475.00;7401838;19;19923;-70
2023/07/20 01:05:43;;;;;;;4.20;1.00;;;;;;;15.95;75.96;101474.38;7399558;19;19947;-70
2023/07/20 01:08:20;;;;;;;1.33;1.23;;;;;;;15.93;75.43;101467.47;7400675;19;19922;-70
2023/07/20 01:10:56;;;;;;;1.27;1.10;;;;;;;15.87;75.70;101475.38;7400120;19;19919;-70
2023/07/20 01:13:25;;;;;;;1.10;0.93;;;;;;;15.88;75.60;101482.47;7400063;19;20464;-70
2023/07/20 01:15:59;;;;;;;2.00;1.13;;;;;;;15.86;75.68;101476.41;7399635;19;20328;-70
2023/07/20 01:18:30;;;;;;;2.80;1.10;;;;;;;15.84;75.79;101469.47;7400881;19;19951;-71
2023/07/20 01:21:03;;;;;;;1.45;1.00;;;;;;;15.85;75.88;101480.16;7400567;19;19931;-70
2023/07/20 01:24:00;;;;;;;2.63;1.00;;;;;;;15.73;76.41;101470.88;7399266;19;20348;-70
2023/07/20 01:26:44;;;;;;;1.70;1.00;;;;;;;15.69;76.64;101471.47;7398618;19;20406;-70
2023/07/20 01:29:41;;;;;;;2.50;1.40;;;;;;;15.60;77.73;101480.78;7401696;19;19927;-71
2023/07/20 01:32:13;;;;;;;3.25;1.00;;;;;;;15.63;76.36;101475.78;7400721;19;19938;-70
2023/07/20 01:34:44;;;;;;;2.90;1.50;;;;;;;15.68;76.11;101469.75;7401147;19;19942;-71
2023/07/20 01:37:14;;;;;;;1.70;1.27;;;;;;;15.66;76.49;101475.38;7398562;19;19947;-70
2023/07/20 01:39:43;;;;;;;1.85;1.58;;;;;;;15.65;76.35;101472.88;7400895;19;20373;-70
2023/07/20 01:42:12;;;;;;;3.75;1.40;;;;;;;15.62;76.33;101473.28;7398593;19;20399;-70
2023/07/20 01:44:41;;;;;;;1.30;1.20;;;;;;;15.57;76.49;101463.00;7396302;19;19923;-70
2023/07/20 01:47:12;;;;;;;2.08;1.50;;;;;;;15.54;76.66;101466.09;7399177;19;19918;-70
2023/07/20 01:49:41;;;;;;;3.72;1.10;;;;;;;15.54;76.51;101467.97;7398912;19;20545;-70
2023/07/20 01:52:09;;;;;;;3.45;1.65;;;;;;;15.55;76.04;101466.94;7400406;19;19951;-72
2023/07/20 01:54:38;;;;;;;2.55;1.70;;;;;;;15.52;76.24;101464.63;7399511;19;19919;-70
2023/07/20 01:57:08;;;;;;;3.40;1.50;;;;;;;15.50;76.89;101466.63;7399028;19;20010;-70
2023/07/20 01:59:36;;;;;;;3.72;1.65;;;;;;;15.46;76.72;101463.47;7396615;19;19931;-70
2023/07/20 02:02:05;;;;;;;2.95;1.77;;;;;;;15.41;77.19;101466.78;7398931;19;19914;-70
2023/07/20 02:04:36;;;;;;;1.90;1.60;;;;;;;15.38;76.90;101456.31;7399174;19;19947;-70
2023/07/20 02:07:05;;;;;;;2.22;1.73;;;;;;;15.32;76.67;101459.78;7398885;19;19944;-71
2023/07/20 02:09:34;;;;;;;2.08;1.30;;;;;;;15.30;76.80;101463.75;7399763;19;19990;-71
2023/07/20 02:12:02;;;;;;;2.58;1.50;;;;;;;15.25;77.01;101463.47;7398826;19;20308;-71
2023/07/20 02:14:31;;;;;;;2.53;1.40;;;;;;;15.20;76.71;101460.50;7399985;19;20664;-71
2023/07/20 02:17:01;;;;;;;3.22;1.65;;;;;;;15.15;76.79;101462.94;7398160;19;19918;-71
2023/07/20 02:19:31;;;;;;;3.47;1.40;;;;;;;15.09;76.95;101459.16;7398445;19;19915;-71
2023/07/20 02:22:02;;;;;;;2.00;1.17;;;;;;;15.10;76.99;101471.66;7393874;19;19922;-71
2023/07/20 02:24:31;;;;;;;4.13;1.60;;;;;;;15.10;76.92;101463.50;7400049;19;20369;-71
2023/07/20 02:26:59;;;;;;;2.40;1.42;;;;;;;15.08;76.45;101476.44;7397498;19;19978;-70
2023/07/20 02:29:28;;;;;;;3.40;1.40;;;;;;;15.03;76.76;101476.19;7397201;19;19919;-71
2023/07/20 02:31:56;;;;;;;3.40;1.40;;;;;;;14.96;77.19;101476.13;7400206;19;19968;-71
2023/07/20 02:34:25;;;;;;;1.90;1.40;;;;;;;14.91;76.88;101467.69;7398666;19;19968;-70
2023/07/20 02:36:56;;;;;;;4.32;1.55;;;;;;;14.92;76.79;101468.53;7397129;19;19934;-70
2023/07/20 02:39:27;;;;;;;2.40;1.60;;;;;;;14.87;76.85;101476.41;7396641;19;19918;-71
2023/07/20 02:41:55;;;;;;;3.30;1.80;;;;;;;14.81;77.08;101464.44;7397095;19;19950;-71
2023/07/20 02:44:24;;;;;;;2.53;1.23;;;;;;;14.80;77.03;101470.03;7397350;19;20346;-71
2023/07/20 02:46:53;;;;;;;3.28;1.58;;;;;;;14.77;77.16;101465.84;7398263;19;19922;-70
2023/07/20 02:49:21;;;;;;;2.80;1.58;;;;;;;14.74;77.23;101473.53;7398883;19;19922;-70
2023/07/20 02:51:50;;;;;;;4.88;1.50;;;;;;;14.70;77.27;101477.66;7396191;19;20590;-69
2023/07/20 02:54:18;;;;;;;2.50;1.67;;;;;;;14.69;77.35;101478.69;7396279;19;19939;-70
2023/07/20 02:56:50;;;;;;;2.60;1.17;;;;;;;14.65;77.28;101477.38;7397030;19;19949;-70
2023/07/20 02:59:18;;;;;;;2.88;1.45;;;;;;;14.60;77.60;101485.22;7397262;19;20401;-70
2023/07/20 03:01:47;;;;;;;2.90;1.50;;;;;;;14.57;77.15;101485.63;7396417;19;19929;-69
2023/07/20 03:04:16;;;;;;;2.00;1.77;;;;;;;14.52;77.55;101481.59;7398316;19;19918;-71
2023/07/20 03:06:44;;;;;;;2.00;1.60;;;;;;;14.49;77.59;101483.84;7396626;19;19919;-70
2023/07/20 03:09:13;;;;;;;2.58;1.65;;;;;;;14.47;77.32;101486.75;7398315;19;19925;-70
2023/07/20 03:11:42;;;;;;;3.38;1.25;;;;;;;14.44;77.41;101489.84;7396960;19;19955;-70
2023/07/20 03:14:13;;;;;;;3.05;1.58;;;;;;;14.42;77.60;101491.03;7397495;19;19951;-70
2023/07/20 03:16:42;;;;;;;1.88;1.38;;;;;;;14.39;77.43;101494.97;7395991;19;19959;-70
2023/07/20 03:19:11;;;;;;;1.50;1.35;;;;;;;14.38;77.43;101490.56;7397371;19;19922;-70
2023/07/20 03:21:41;;;;;;;2.30;1.48;;;;;;;14.35;77.27;101499.09;7396374;19;20340;-70
2023/07/20 03:24:10;;;;;;;2.85;1.13;;;;;;;14.33;77.44;101494.81;7397055;19;20026;-70
2023/07/20 03:26:38;;;;;;;2.38;1.42;;;;;;;14.30;77.13;101495.22;7396472;19;19918;-70
2023/07/20 03:29:08;;;;;;;1.73;1.35;;;;;;;14.23;77.38;101500.53;7397972;19;19927;-70
2023/07/20 03:31:39;;;;;;;9.60;1.90;;;;;;;14.19;77.79;101499.22;7397731;19;19982;-70
2023/07/20 03:34:08;;;;;;;1.65;1.30;;;;;;;14.14;77.50;101501.66;7404892;19;19953;-70
2023/07/20 03:36:37;;;;;;;4.10;2.05;;;;;;;14.08;77.51;101491.53;7401810;19;19947;-70
2023/07/20 03:39:06;;;;;;;3.70;1.30;;;;;;;14.10;77.12;101494.91;7401540;19;19915;-70
2023/07/20 03:41:35;;;;;;;3.75;1.75;;;;;;;14.11;77.27;101487.63;7401870;19;19927;-70
2023/07/20 03:44:03;;;;;;;1.63;1.40;;;;;;;14.13;77.15;101488.28;7402103;19;19930;-71
2023/07/20 03:46:33;;;;;;;2.47;1.23;;;;;;;14.16;77.12;101491.44;7402110;19;20291;-70
2023/07/20 03:49:06;;;;;;;2.92;1.58;;;;;;;14.15;77.17;101492.47;7403354;19;19940;-70
2023/07/20 03:51:34;;;;;;;3.53;1.48;;;;;;;14.12;77.01;101492.84;7398564;19;19966;-70
2023/07/20 03:54:03;;;;;;;1.65;1.30;;;;;;;14.08;77.53;101486.97;7402214;19;19950;-70
2023/07/20 03:56:35;;;;;;;1.70;1.30;;;;;;;14.04;77.71;101490.22;7402275;19;19935;-70
2023/07/20 03:59:03;;;;;;;3.60;1.27;;;;;;;14.04;77.56;101498.34;7402552;19;19933;-70
2023/07/20 04:01:34;;;;;;;2.40;1.50;;;;;;;14.05;78.03;101491.91;7402014;19;20542;-70
2023/07/20 04:04:08;;;;;;;4.00;1.75;;;;;;;14.05;78.21;101497.34;7400251;19;19929;-70
2023/07/20 04:06:37;;;;;;;1.98;1.33;;;;;;;14.08;77.98;101496.97;7402095;19;20290;-70
2023/07/20 04:09:07;;;;;;;1.40;1.15;;;;;;;14.08;77.93;101502.38;7403718;19;19919;-70
2023/07/20 04:11:36;;;;;;;3.47;1.70;;;;;;;14.07;77.78;101506.09;7402615;19;20278;-70
2023/07/20 04:14:04;;;;;;;5.07;1.33;;;;;;;14.04;77.84;101509.19;7402687;19;19927;-70
2023/07/20 04:16:33;;;;;;;2.33;1.40;;;;;;;14.04;77.66;101507.31;7399055;19;20377;-70
2023/07/20 04:19:01;;;;;;;1.98;1.30;;;;;;;13.99;77.79;101509.75;7402490;19;19940;-70
2023/07/20 04:21:33;;;;;;;3.80;1.30;;;;;;;13.98;77.74;101507.19;7401567;19;19922;-70
2023/07/20 04:24:01;;;;;;;2.25;1.27;;;;;;;13.95;77.71;101507.59;7401045;19;19959;-70
2023/07/20 04:26:30;;;;;;;2.90;1.40;;;;;;;13.93;77.90;101509.66;7401829;19;19926;-70
2023/07/20 04:28:59;;;;;;;2.10;1.20;;;;;;;13.94;77.88;101514.00;7401378;19;19930;-71
2023/07/20 04:31:28;;;;;;;4.20;1.30;;;;;;;13.94;77.70;101517.56;7403178;19;19918;-70
2023/07/20 04:33:56;;;;;;;1.65;1.42;;;;;;;13.94;77.52;101516.72;7402783;19;19943;-70
2023/07/20 04:36:25;;;;;;;2.10;1.02;;;;;;;13.94;77.48;101522.97;7401259;19;19939;-70
2023/07/20 04:38:56;;;;;;;3.40;1.55;;;;;;;13.97;77.72;101521.78;7400158;19;19982;-70
2023/07/20 04:41:26;;;;;;;2.55;1.30;;;;;;;14.02;77.35;101533.75;7399524;19;20624;-70
2023/07/20 04:43:54;;;;;;;2.40;1.40;;;;;;;14.09;77.30;101531.16;7399116;19;19922;-70
2023/07/20 04:46:23;;;;;;;2.60;1.30;;;;;;;14.18;76.82;101534.63;7400751;19;19918;-70
2023/07/20 04:48:51;;;;;;;5.80;1.42;;;;;;;14.23;76.93;101535.78;7399443;19;19923;-70
2023/07/20 04:51:20;;;;;;;1.85;1.35;;;;;;;14.27;77.02;101537.09;7401146;19;19955;-70
2023/07/20 04:53:49;;;;;;;2.97;1.00;;;;;;;14.34;76.87;101539.88;7400973;19;19931;-69
2023/07/20 04:56:23;;;;;;;2.17;0.98;;;;;;;14.39;76.86;101537.50;7398735;19;19943;-70
2023/07/20 04:58:51;;;;;;;1.17;1.10;;;;;;;14.43;76.29;101542.38;7396508;19;19930;-70
2023/07/20 05:01:20;;;;;;;2.22;1.10;;;;;;;14.45;76.20;101540.28;7400398;19;19915;-70
2023/07/20 05:03:49;;;;;;;3.85;1.00;;;;;;;14.47;76.84;101530.13;7401770;19;19932;-70
2023/07/20 05:06:17;;;;;;;2.08;1.02;;;;;;;14.48;76.49;101549.94;7401395;19;19985;-70
2023/07/20 05:08:46;;;;;;;1.23;0.90;;;;;;;14.48;76.47;101541.81;7402013;19;19918;-70
2023/07/20 05:11:14;;;;;;;1.98;0.80;;;;;;;14.47;76.14;101540.97;7402114;19;19943;-70
2023/07/20 05:13:46;;;;;;;2.03;1.10;;;;;;;14.44;76.16;101535.91;7400528;19;19919;-71
2023/07/20 05:16:14;;;;;;;2.40;1.23;;;;;;;14.41;76.52;101546.31;7401848;19;20467;-70
2023/07/20 05:18:43;;;;;;;3.78;1.20;;;;;;;14.38;76.47;101542.06;7402091;19;19945;-71
2023/07/20 05:21:11;;;;;;;3.40;1.25;;;;;;;14.38;76.26;101542.06;7401535;19;20291;-70
2023/07/20 05:23:40;;;;;;;3.42;1.27;;;;;;;14.37;76.06;101540.38;7400713;19;19954;-70
2023/07/20 05:26:09;;;;;;;4.18;1.42;;;;;;;14.38;76.08;101533.94;7398897;19;19962;-70
2023/07/20 05:28:37;;;;;;;2.95;1.38;;;;;;;14.39;75.92;101538.34;7402596;19;19930;-70
2023/07/20 05:31:09;;;;;;;5.15;1.30;;;;;;;14.43;75.55;101544.22;7401150;19;19915;-70
2023/07/20 05:33:37;;;;;;;1.63;1.00;;;;;;;14.44;75.74;101532.38;7402728;19;19919;-70
2023/07/20 05:36:07;;;;;;;4.90;1.23;;;;;;;14.45;75.53;101529.44;7402450;19;19914;-71
2023/07/20 05:38:35;;;;;;;1.88;1.20;;;;;;;14.48;75.38;101534.53;7401460;19;19923;-69
2023/07/20 05:41:04;;;;;;;3.35;1.10;;;;;;;14.50;75.35;101532.44;7400580;19;20793;-70
2023/07/20 05:43:34;;;;;;;2.17;1.10;;;;;;;14.57;75.65;101542.56;7398745;19;19922;-70
2023/07/20 05:46:02;;;;;;;3.20;1.00;;;;;;;14.63;75.58;101544.50;7400905;19;20467;-69
2023/07/20 05:48:33;;;;;;;3.15;0.90;;;;;;;14.70;75.35;101545.47;7398689;19;19923;-70
2023/07/20 05:51:02;;;;;;;1.70;0.90;;;;;;;14.73;75.85;101535.06;7399875;19;19919;-70
2023/07/20 05:53:31;;;;;;;3.83;0.93;;;;;;;14.83;75.57;101532.06;7399997;19;19927;-70
2023/07/20 05:55:59;;;;;;;2.30;0.80;;;;;;;14.88;75.35;101537.78;7399489;19;19918;-70
2023/07/20 05:58:28;;;;;;;3.00;0.80;;;;;;;14.92;75.69;101534.50;7400022;19;20282;-70
2023/07/20 06:00:56;;;;;;;3.42;0.98;;;;;;;14.98;75.20;101536.44;7400090;19;20348;-70
2023/07/20 06:03:25;;;;;;;2.83;0.80;;;;;;;15.04;75.03;101540.28;7398368;19;20567;-71
2023/07/20 06:06:01;;;;;;;2.42;0.90;;;;;;;15.10;75.57;101544.94;7398300;19;19925;-71
2023/07/20 06:08:30;;;;;;;2.72;0.95;;;;;;;15.18;75.25;101536.72;7395862;19;19922;-71
2023/07/20 06:10:59;;;;;;;2.75;0.82;;;;;;;15.26;74.74;101543.88;7397271;19;20340;-80
2023/07/20 06:13:27;;;;;;;2.83;0.70;;;;;;;15.27;73.62;101543.66;7401523;19;19943;-78
2023/07/20 06:15:56;;;;;;;2.72;0.68;;;;;;;15.29;73.42;101546.22;7404611;19;19941;-79
2023/07/20 06:18:25;;;;;;;1.75;0.52;;;;;;;15.33;73.06;101544.78;7404079;19;19974;-80
2023/07/20 06:20:57;;;;;;;2.53;0.85;;;;;;;15.39;73.32;101544.03;7403430;19;19915;-78
2023/07/20 06:23:25;;;;;;;3.20;0.93;;;;;;;15.44;73.12;101547.03;7398794;19;19918;-70
2023/07/20 06:25:54;;;;;;;1.52;0.70;;;;;;;15.52;73.03;101551.50;7390524;19;19948;-71
2023/07/20 06:28:23;;;;;;;3.42;0.82;;;;;;;15.57;72.36;101554.50;7397324;19;19933;-71
2023/07/20 06:30:51;;;;;;;2.70;1.10;;;;;;;15.61;72.01;101555.78;7398059;19;19923;-71
2023/07/20 06:33:23;;;;;;;3.40;0.90;;;;;;;15.66;71.42;101558.78;7395214;19;19923;-70
2023/07/20 06:35:52;;;;;;;3.45;0.82;;;;;;;15.73;70.87;101560.50;7379943;19;20336;-71
2023/07/20 06:38:23;;;;;;;3.13;1.05;;;;;;;15.77;70.91;101552.81;7393280;19;19918;-71
2023/07/20 06:40:52;;;;;;;3.63;0.63;;;;;;;15.83;70.79;101554.75;7389344;19;20622;-70
2023/07/20 06:43:21;;;;;;;2.72;0.73;;;;;;;15.88;70.77;101552.28;7391701;19;20002;-71
2023/07/20 06:45:55;;;;;;;2.95;1.13;;;;;;;15.95;69.80;101552.34;7395127;19;20349;-70
2023/07/20 06:48:24;;;;;;;0.88;0.60;;;;;;;16.03;69.04;101554.94;7396197;19;19947;-70
2023/07/20 06:50:53;;;;;;;1.58;0.75;;;;;;;16.07;69.52;101550.78;7395412;19;20261;-70
2023/07/20 06:53:24;;;;;;;1.70;0.90;;;;;;;16.10;67.98;101553.09;7397693;19;19929;-71
2023/07/20 06:55:53;;;;;;;3.63;1.02;;;;;;;16.16;68.55;101558.59;7398495;19;19919;-70
2023/07/20 06:58:22;;;;;;;1.83;0.80;;;;;;;16.19;67.45;101544.59;7396598;19;19927;-71
2023/07/20 07:00:50;;;;;;;3.15;0.90;;;;;;;16.26;66.33;101555.56;7397747;19;20348;-70
2023/07/20 07:03:19;;;;;;;2.83;1.00;;;;;;;16.28;65.85;101559.75;7396896;19;19919;-71
2023/07/20 07:05:48;;;;;;;3.85;1.17;;;;;;;16.34;66.24;101558.97;7397605;19;20279;-71
2023/07/20 07:08:16;;;;;;;2.92;0.80;;;;;;;16.41;66.83;101563.59;7402128;19;20248;-71
2023/07/20 07:10:48;;;;;;;2.28;0.90;;;;;;;16.48;65.48;101570.75;7403428;19;19949;-70
2023/07/20 07:13:16;;;;;;;1.85;0.82;;;;;;;16.53;65.48;101562.84;7404467;19;19918;-70
2023/07/20 07:15:45;;;;;;;1.52;0.80;;;;;;;16.60;65.39;101565.66;7404895;19;19935;-70
2023/07/20 07:18:14;;;;;;;1.98;0.82;;;;;;;16.71;65.79;101565.09;7404402;19;19978;-71
2023/07/20 07:20:42;;;;;;;2.47;0.90;;;;;;;16.82;65.62;101566.41;7402988;19;19926;-71
2023/07/20 07:23:11;;;;;;;3.25;1.20;;;;;;;16.90;64.69;101574.41;7402771;19;19914;-71
2023/07/20 07:25:39;;;;;;;1.50;0.88;;;;;;;16.95;64.78;101572.78;7402962;19;19922;-70
2023/07/20 07:28:10;;;;;;;2.42;1.17;;;;;;;16.96;64.02;101573.59;7403895;19;19961;-71
2023/07/20 07:30:39;;;;;;;2.60;1.00;;;;;;;17.04;64.02;101573.44;7402791;19;19991;-71
2023/07/20 07:33:08;;;;;;;3.50;1.00;;;;;;;17.11;64.14;101572.44;7404182;19;19922;-71
2023/07/20 07:35:37;;;;;;;4.97;1.23;;;;;;;17.22;63.71;101574.56;7401553;19;19982;-71
2023/07/20 07:38:06;;;;;;;4.43;1.00;;;;;;;17.39;63.77;101579.63;7403924;19;19919;-71
2023/07/20 07:40:35;;;;;;;2.28;1.02;;;;;;;17.51;62.85;101580.75;7403702;19;19919;-71
2023/07/20 07:43:03;;;;;;;4.55;1.10;;;;;;;17.57;62.24;101572.56;7403123;19;19919;-70
2023/07/20 07:45:37;;;;;;;5.13;0.95;;;;;;;17.58;62.46;101584.34;7401670;19;19961;-71
2023/07/20 07:48:08;;;;;;;2.65;1.20;;;;;;;17.57;62.87;101577.19;7403596;19;19919;-70
2023/07/20 07:50:37;;;;;;;3.10;2.00;;;;;;;17.48;62.57;101597.47;7403685;19;19919;-70
2023/07/20 07:53:05;;;;;;;4.18;1.50;;;;;;;17.42;63.02;101596.44;7403752;19;19927;-71
2023/07/20 07:55:34;;;;;;;5.68;1.85;;;;;;;17.48;63.22;101597.47;7402370;19;20344;-71
2023/07/20 07:58:03;;;;;;;2.75;0.90;;;;;;;17.57;63.18;101608.00;7401980;19;19944;-71
2023/07/20 08:00:34;;;;;;;2.60;1.23;;;;;;;17.68;62.78;101599.28;7404154;19;19922;-70
2023/07/20 08:03:02;;;;;;;2.67;1.35;;;;;;;17.71;62.78;101589.84;7403008;19;19926;-71
2023/07/20 08:05:31;;;;;;;3.72;1.67;;;;;;;17.68;63.06;101614.78;7402735;19;20590;-70
2023/07/20 08:08:00;;;;;;;6.85;1.30;;;;;;;17.56;63.28;101606.31;7404322;19;19953;-70
2023/07/20 08:10:28;;;;;;;3.67;1.30;;;;;;;17.42;63.97;101614.66;7403019;19;19939;-70
2023/07/20 08:12:57;;;;;;;4.43;1.30;;;;;;;17.24;65.36;101610.59;7403445;19;19911;-71
2023/07/20 08:15:25;;;;;;;4.85;1.27;;;;;;;17.05;65.65;101611.34;7403547;19;19923;-71
2023/07/20 08:17:57;;;;;;;2.13;1.30;;;;;;;16.89;65.87;101621.72;7404131;19;19943;-71
2023/07/20 08:20:26;;;;;;;3.60;1.85;;;;;;;16.84;65.81;101616.88;7402846;19;19922;-71
2023/07/20 08:22:55;;;;;;;3.30;1.90;;;;;;;16.81;65.81;101614.56;7402697;19;19932;-71
2023/07/20 08:25:24;;;;;;;4.47;2.33;;;;;;;16.88;65.82;101618.16;7402310;19;19957;-70
2023/07/20 08:27:53;;;;;;;2.95;1.48;;;;;;;16.98;65.53;101623.25;7402718;19;20397;-71
2023/07/20 08:30:24;;;;;;;5.57;1.85;;;;;;;17.09;65.81;101617.22;7402825;19;19922;-70
2023/07/20 08:32:53;;;;;;;6.60;1.40;;;;;;;17.12;64.28;101617.69;7401640;19;19929;-71
2023/07/20 08:35:24;;;;;;;3.83;1.38;;;;;;;17.15;64.26;101609.09;7401481;19;19943;-70
2023/07/20 08:37:53;;;;;;;6.82;1.55;;;;;;;17.25;64.78;101616.91;7402916;19;20555;-71
2023/07/20 08:40:21;;;;;;;2.00;0.77;;;;;;;17.40;64.48;101605.84;7402113;19;19927;-71
2023/07/20 08:42:51;;;;;;;2.95;1.17;;;;;;;17.47;62.30;101612.16;7402593;19;19930;-71
2023/07/20 08:45:21;;;;;;;4.75;0.70;;;;;;;17.54;61.49;101618.47;7399107;19;20372;-71
2023/07/20 08:47:51;;;;;;;3.30;1.20;;;;;;;17.63;61.83;101620.00;7399069;19;19926;-71
2023/07/20 08:50:24;;;;;;;5.07;1.13;;;;;;;17.81;61.31;101613.97;7399885;19;19930;-71
2023/07/20 08:52:55;;;;;;;6.35;0.88;;;;;;;18.00;60.83;101611.28;7399496;19;20630;-71
2023/07/20 08:55:25;;;;;;;5.03;0.95;;;;;;;18.22;60.45;101616.53;7400617;19;19931;-70
2023/07/20 08:57:56;;;;;;;4.07;0.90;;;;;;;18.43;59.51;101610.88;7401204;19;20499;-71
2023/07/20 09:00:27;;;;;;;3.60;1.48;;;;;;;18.55;57.55;101617.44;7399721;19;19982;-70
2023/07/20 09:02:57;;;;;;;3.22;0.80;;;;;;;18.55;56.96;101609.22;7398438;19;19918;-70
2023/07/20 09:05:28;;;;;;;3.55;0.90;;;;;;;18.52;57.93;101615.06;7400236;19;19918;-71
2023/07/20 09:07:57;;;;;;;3.58;1.10;;;;;;;18.48;58.59;101619.25;7399396;19;19944;-71
2023/07/20 09:10:27;;;;;;;1.85;0.70;;;;;;;18.40;57.40;101623.06;7397596;19;19943;-71
2023/07/20 09:12:55;;;;;;;2.28;0.60;;;;;;;18.43;57.83;101625.34;7398518;19;19918;-70
2023/07/20 09:15:25;;;;;;;3.30;0.80;;;;;;;18.53;57.07;101624.97;7400255;19;20283;-71
2023/07/20 09:17:54;;;;;;;2.95;0.90;;;;;;;18.65;57.27;101620.53;7399683;19;19930;-70
2023/07/20 09:20:23;;;;;;;2.63;1.05;;;;;;;18.80;57.07;101607.50;7398778;19;19939;-70
2023/07/20 09:22:55;;;;;;;1.90;0.65;;;;;;;18.90;55.57;101616.09;7399381;19;20362;-70
2023/07/20 09:25:25;;;;;;;3.08;1.42;;;;;;;18.98;55.90;101613.13;7399238;19;20351;-70
2023/07/20 09:27:54;;;;;;;2.35;0.95;;;;;;;18.92;55.34;101618.63;7399540;19;19918;-71
2023/07/20 09:30:28;;;;;;;3.40;1.25;;;;;;;18.97;54.46;101610.63;7396862;19;19925;-70
2023/07/20 09:33:22;;;;;;;2.92;1.10;;;;;;;19.12;51.93;101615.81;7397501;19;19930;-70
2023/07/20 09:35:50;;;;;;;1.40;0.80;;;;;;;19.26;53.64;101620.19;7398623;19;20357;-70
2023/07/20 09:38:22;;;;;;;8.00;3.20;;;;;;;19.19;53.07;101613.91;7396746;19;19946;-70
2023/07/20 09:40:50;;;;;;;4.50;0.93;;;;;;;19.04;53.77;101609.53;7399654;19;19922;-70
2023/07/20 09:43:19;;;;;;;4.38;1.27;;;;;;;18.90;52.69;101618.81;7396855;19;20483;-70
2023/07/20 09:45:48;;;;;;;4.90;1.20;;;;;;;18.91;51.15;101620.50;7256710;19;2771255;-70
2023/07/20 09:48:16;;;;;;;1.33;0.57;;;;;;;19.00;49.90;101616.50;7399770;19;20589;-69
2023/07/20 09:50:52;;;;;;;3.95;1.25;;;;;;;19.22;50.08;101610.75;7400268;19;19940;-71
2023/07/20 09:53:23;;;;;;;2.10;0.77;;;;;;;19.44;48.65;101610.28;7399686;19;19951;-71
2023/07/20 09:55:52;;;;;;;2.47;0.60;;;;;;;19.55;50.50;101614.19;7399068;19;19926;-71
2023/07/20 09:58:21;;;;;;;2.00;0.75;;;;;;;19.67;49.18;101614.38;7397560;19;19918;-73
2023/07/20 10:00:53;;;;;;;5.10;1.40;;;;;;;19.79;49.18;101618.91;7393419;19;19925;-72
2023/07/20 10:03:22;;;;;;;;;;;;;;;19.83;45.96;101614.69;7400908;19;19922;-72
2023/07/20 10:05:55;;;;;;;1.75;0.52;;;;;;;19.99;48.18;101604.25;7400966;19;19919;-80
2023/07/20 10:08:28;;;;;;;0.80;0.50;;;;;;;20.07;48.23;101614.94;7402587;19;19927;-80
2023/07/20 10:10:57;;;;;;;2.03;0.68;;;;;;;20.21;50.42;101603.69;7400782;19;19918;-84
2023/07/20 10:13:30;;;;;;;2.15;0.88;;;;;;;20.28;50.75;101601.72;7402631;19;20273;-83
2023/07/20 10:16:04;;;;;;;4.20;0.75;;;;;;;20.48;50.55;101606.22;7403273;19;19941;-89
2023/07/20 10:18:37;;;;;;;3.33;0.70;;;;;;;20.75;48.85;101619.44;7405320;19;19922;-83
2023/07/20 10:21:09;;;;;;;2.58;0.82;;;;;;;20.83;45.55;101612.84;7403876;19;19990;-82
2023/07/20 10:23:41;;;;;;;1.58;0.50;;;;;;;20.75;47.35;101607.66;7400967;19;19919;-82
2023/07/20 10:26:11;;;;;;;2.92;0.90;;;;;;;20.48;47.31;101609.81;7403225;19;20341;-84
2023/07/20 10:28:41;;;;;;;3.03;0.90;;;;;;;20.64;47.03;101611.97;7405244;19;19919;-86
2023/07/20 10:31:11;;;;;;;2.50;0.90;;;;;;;20.78;43.65;101610.78;7401215;19;20304;-89
2023/07/20 10:33:40;;;;;;;3.65;1.52;;;;;;;20.90;45.06;101605.38;7406060;19;19923;-85
2023/07/20 10:36:09;;;;;;;3.00;0.90;;;;;;;20.94;46.20;101612.09;7405326;19;19919;-86
2023/07/20 10:38:45;;;;;;;3.80;0.82;;;;;;;20.82;46.83;101602.94;7403200;19;19915;-84
2023/07/20 10:41:21;;;;;;;0.82;0.50;;;;;;;20.65;46.67;101607.34;7400470;19;19918;-69
2023/07/20 10:43:51;;;;;;;1.27;0.73;;;;;;;20.59;49.06;101608.22;7403266;19;19918;-76
2023/07/20 10:46:37;;;;;;;3.67;0.90;;;;;;;20.62;45.31;101600.38;7408822;19;19918;-78
2023/07/20 10:49:07;;;;;;;2.25;0.63;;;;;;;20.69;47.12;101603.06;7408610;19;19926;-85
2023/07/20 10:51:42;;;;;;;4.63;0.80;;;;;;;20.86;46.42;101603.31;7409707;19;19943;-79
2023/07/20 10:54:37;;;;;;;3.70;0.90;;;;;;;20.88;43.98;101607.53;7406637;19;19930;-68
2023/07/20 10:57:20;;;;;;;;;;;;;;;20.90;41.15;101599.91;7407725;19;19914;-68
2023/07/20 10:59:50;;;;;;;1.05;0.50;;;;;;;21.29;45.41;101606.88;7404628;19;19958;-69
2023/07/20 11:02:20;;;;;;;8.15;2.22;;;;;;;21.65;43.56;101601.34;7400529;19;19953;-68
2023/07/20 11:04:50;;;;;;;1.83;0.40;;;;;;;21.77;43.72;101603.28;7402875;19;19914;-70
2023/07/20 11:07:20;;;;;;;1.40;0.70;;;;;;;21.35;43.14;101611.44;7406498;19;19930;-68
2023/07/20 11:09:52;;;;;;;1.17;0.70;;;;;;;20.97;44.87;101600.66;7400644;19;19926;-68
2023/07/20 11:12:20;;;;;;;2.28;0.60;;;;;;;20.77;46.54;101605.53;7404022;19;19926;-69
2023/07/20 11:14:57;;;;;;;3.65;0.93;;;;;;;20.43;45.25;101601.44;7402909;19;19953;-69
2023/07/20 11:17:32;;;;;;;5.78;1.30;;;;;;;20.30;45.00;101602.38;7404000;19;19926;-69
2023/07/20 11:20:03;;;;;;;1.92;0.63;;;;;;;20.17;46.92;101607.09;7401027;19;19922;-69
2023/07/20 11:22:33;;;;;;;4.68;1.30;;;;;;;20.15;46.30;101603.75;7405124;19;19922;-69
2023/07/20 11:25:05;;;;;;;2.83;1.00;;;;;;;20.26;45.11;101609.34;7402443;19;19914;-69
2023/07/20 11:27:33;;;;;;;2.22;0.60;;;;;;;20.69;45.23;101614.88;7393946;19;20257;-71
2023/07/20 11:30:02;;;;;;;2.28;1.00;;;;;;;21.10;44.31;101610.63;7402287;19;19926;-71
2023/07/20 11:32:31;;;;;;;8.40;1.15;;;;;;;21.41;44.23;101599.53;7398703;19;19918;-71
2023/07/20 11:34:59;;;;;;;4.95;1.63;;;;;;;21.79;43.56;101614.88;7403133;19;19918;-71
2023/07/20 11:37:28;;;;;;;3.35;1.15;;;;;;;21.92;42.68;101599.06;7403324;19;19934;-71
2023/07/20 11:39:59;;;;;;;3.83;1.17;;;;;;;21.85;43.40;101608.44;7401182;19;20356;-71